createdAt,value
2019-06-01T00:00:24.163Z,14.69
2019-06-01T00:01:24.183Z,14.66
2019-06-01T00:02:24.198Z,14.69
2019-06-01T00:03:24.219Z,14.69
2019-06-01T00:04:24.238Z,14.78
2019-06-01T00:05:24.251Z,14.68
2019-06-01T00:06:24.269Z,14.70
2019-06-01T00:07:24.289Z,14.70
2019-06-01T00:08:24.315Z,14.69
2019-06-01T00:09:24.322Z,14.66
2019-06-01T00:10:24.343Z,14.60
2019-06-01T00:11:24.358Z,14.62
2019-06-01T00:12:24.377Z,14.59
2019-06-01T00:13:24.392Z,14.55
2019-06-01T00:14:24.413Z,14.45
2019-06-01T00:15:24.429Z,14.53
2019-06-01T00:16:24.447Z,14.53
2019-06-01T00:17:24.467Z,14.54
2019-06-01T00:18:24.484Z,14.50
2019-06-01T00:19:24.500Z,14.37
2019-06-01T00:20:24.524Z,14.47
2019-06-01T00:21:24.535Z,14.36
2019-06-01T00:22:24.554Z,14.47
2019-06-01T00:23:24.583Z,14.50
2019-06-01T00:24:24.591Z,14.54
2019-06-01T00:25:24.609Z,14.45
2019-06-01T00:26:24.630Z,14.58
2019-06-01T00:27:24.645Z,14.63
2019-06-01T00:28:24.663Z,14.51
2019-06-01T00:29:24.680Z,14.60
2019-06-01T00:30:27.397Z,14.55
2019-06-01T00:31:24.712Z,14.55
2019-06-01T00:32:24.734Z,14.48
2019-06-01T00:33:24.756Z,14.51
2019-06-01T00:34:24.767Z,14.50
2019-06-01T00:35:24.787Z,14.53
2019-06-01T00:36:24.813Z,14.37
2019-06-01T00:37:24.821Z,14.50
2019-06-01T00:38:24.838Z,14.45
2019-06-01T00:39:24.859Z,14.41
2019-06-01T00:40:24.877Z,14.41
2019-06-01T00:41:24.892Z,14.30
2019-06-01T00:42:24.909Z,14.29
2019-06-01T00:43:24.929Z,14.22
2019-06-01T00:44:24.947Z,14.15
2019-06-01T00:45:24.964Z,14.07
2019-06-01T00:46:24.977Z,14.14
2019-06-01T00:47:24.999Z,13.96
2019-06-01T00:48:25.014Z,13.99
2019-06-01T00:49:25.032Z,13.97
2019-06-01T00:50:25.096Z,13.93
2019-06-01T00:51:25.069Z,13.93
2019-06-01T00:52:25.083Z,13.92
2019-06-01T00:53:25.142Z,13.86
2019-06-01T00:54:25.123Z,13.78
2019-06-01T00:55:25.139Z,13.83
2019-06-01T00:56:25.159Z,13.81
2019-06-01T00:57:25.175Z,13.78
2019-06-01T00:58:25.194Z,13.77
2019-06-01T00:59:25.207Z,13.72
2019-06-01T01:00:25.244Z,13.72
2019-06-01T01:01:25.251Z,13.70
2019-06-01T01:02:25.270Z,13.83
2019-06-01T01:03:25.282Z,13.83
2019-06-01T01:04:25.306Z,13.86
2019-06-01T01:05:25.353Z,13.85
2019-06-01T01:06:25.332Z,13.87
2019-06-01T01:07:25.349Z,13.87
2019-06-01T01:08:25.379Z,13.85
2019-06-01T01:09:25.388Z,13.86
2019-06-01T01:10:25.409Z,13.81
2019-06-01T01:11:25.425Z,13.86
2019-06-01T01:12:25.440Z,13.90
2019-06-01T01:13:25.455Z,13.83
2019-06-01T01:14:25.528Z,13.83
2019-06-01T01:15:25.494Z,13.85
2019-06-01T01:16:25.511Z,13.79
2019-06-01T01:17:25.525Z,13.78
2019-06-01T01:18:25.557Z,13.85
2019-06-01T01:19:25.579Z,13.86
2019-06-01T01:20:25.615Z,13.87
2019-06-01T01:21:25.606Z,13.89
2019-06-01T01:22:25.614Z,13.86
2019-06-01T01:23:25.634Z,13.87
2019-06-01T01:24:25.654Z,13.85
2019-06-01T01:25:25.676Z,13.85
2019-06-01T01:26:25.683Z,13.86
2019-06-01T01:27:25.708Z,13.92
2019-06-01T01:28:25.726Z,13.81
2019-06-01T01:29:25.750Z,13.86
2019-06-01T01:30:25.757Z,13.86
2019-06-01T01:31:25.771Z,13.83
2019-06-01T01:32:25.792Z,13.86
2019-06-01T01:33:25.810Z,13.86
2019-06-01T01:34:25.825Z,13.83
2019-06-01T01:35:25.845Z,13.85
2019-06-01T01:36:25.863Z,13.85
2019-06-01T01:37:25.886Z,13.83
2019-06-01T01:38:25.896Z,13.86
2019-06-01T01:39:25.931Z,13.83
2019-06-01T01:40:25.930Z,13.93
2019-06-01T01:41:25.947Z,13.89
2019-06-01T01:42:25.964Z,13.79
2019-06-01T01:43:25.992Z,13.85
2019-06-01T01:44:25.999Z,13.74
2019-06-01T01:45:26.043Z,13.65
2019-06-01T01:46:26.042Z,13.60
2019-06-01T01:47:26.122Z,13.53
2019-06-01T01:48:26.068Z,13.63
2019-06-01T01:49:26.088Z,13.56
2019-06-01T01:50:26.103Z,13.49
2019-06-01T01:51:26.122Z,13.54
2019-06-01T01:52:26.143Z,13.50
2019-06-01T01:53:26.157Z,13.49
2019-06-01T01:54:26.177Z,13.54
2019-06-01T01:55:26.208Z,13.54
2019-06-01T01:56:26.218Z,13.50
2019-06-01T01:57:26.238Z,13.53
2019-06-01T01:58:26.247Z,13.49
2019-06-01T01:59:26.266Z,13.54
2019-06-01T02:00:26.280Z,13.60
2019-06-01T02:01:26.326Z,13.53
2019-06-01T02:02:26.316Z,13.54
2019-06-01T02:03:26.330Z,13.56
2019-06-01T02:04:26.357Z,13.56
2019-06-01T02:05:26.371Z,13.59
2019-06-01T02:06:28.951Z,13.56
2019-06-01T02:07:26.407Z,13.54
2019-06-01T02:08:26.545Z,13.71
2019-06-01T02:09:26.449Z,13.71
2019-06-01T02:10:26.461Z,13.77
2019-06-01T02:11:26.469Z,13.86
2019-06-01T02:12:26.487Z,13.85
2019-06-01T02:13:26.514Z,13.81
2019-06-01T02:14:26.523Z,13.75
2019-06-01T02:15:26.545Z,13.71
2019-06-01T02:16:26.565Z,13.83
2019-06-01T02:17:26.579Z,13.74
2019-06-01T02:18:26.590Z,13.81
2019-06-01T02:19:26.609Z,13.81
2019-06-01T02:20:26.626Z,13.77
2019-06-01T02:21:26.641Z,13.63
2019-06-01T02:22:26.660Z,13.67
2019-06-01T02:23:26.681Z,13.59
2019-06-01T02:24:26.698Z,13.44
2019-06-01T02:25:26.721Z,13.44
2019-06-01T02:26:26.739Z,13.38
2019-06-01T02:27:26.757Z,13.31
2019-06-01T02:28:26.762Z,13.22
2019-06-01T02:29:26.776Z,13.31
2019-06-01T02:30:26.797Z,13.31
2019-06-01T02:31:40.739Z,13.37
2019-06-01T02:32:26.832Z,13.37
2019-06-01T02:33:26.853Z,13.33
2019-06-01T02:34:26.871Z,13.30
2019-06-01T02:35:26.886Z,13.37
2019-06-01T02:36:26.916Z,13.42
2019-06-01T02:37:26.920Z,13.44
2019-06-01T02:38:26.943Z,13.54
2019-06-01T02:39:26.956Z,13.56
2019-06-01T02:40:26.972Z,13.59
2019-06-01T02:41:26.994Z,13.54
2019-06-01T02:42:27.032Z,13.57
2019-06-01T02:43:27.033Z,13.75
2019-06-01T02:44:27.038Z,13.62
2019-06-01T02:45:27.059Z,13.67
2019-06-01T02:46:27.072Z,13.67
2019-06-01T02:47:27.089Z,13.59
2019-06-01T02:48:27.105Z,13.53
2019-06-01T02:49:27.125Z,13.63
2019-06-01T02:50:27.148Z,13.70
2019-06-01T02:51:27.166Z,13.56
2019-06-01T02:52:27.182Z,13.52
2019-06-01T02:53:27.192Z,13.57
2019-06-01T02:54:27.212Z,13.52
2019-06-01T02:55:27.229Z,13.54
2019-06-01T02:56:27.245Z,13.60
2019-06-01T02:57:27.263Z,13.53
2019-06-01T02:58:27.282Z,13.56
2019-06-01T02:59:27.300Z,13.50
2019-06-01T03:00:27.323Z,13.52
2019-06-01T03:01:27.335Z,13.56
2019-06-01T03:02:27.349Z,13.57
2019-06-01T03:03:27.368Z,13.60
2019-06-01T03:04:27.384Z,13.59
2019-06-01T03:05:27.406Z,13.75
2019-06-01T03:06:27.418Z,13.62
2019-06-01T03:07:27.572Z,13.54
2019-06-01T03:08:27.465Z,13.56
2019-06-01T03:09:27.484Z,13.68
2019-06-01T03:10:27.501Z,13.59
2019-06-01T03:11:27.509Z,13.70
2019-06-01T03:12:27.528Z,13.47
2019-06-01T03:13:27.555Z,13.47
2019-06-01T03:14:27.562Z,13.52
2019-06-01T03:15:27.582Z,13.47
2019-06-01T03:16:27.608Z,13.39
2019-06-01T03:17:27.610Z,13.37
2019-06-01T03:18:27.637Z,13.35
2019-06-01T03:19:27.646Z,13.30
2019-06-01T03:20:27.666Z,13.37
2019-06-01T03:21:27.679Z,13.35
2019-06-01T03:22:27.698Z,13.35
2019-06-01T03:23:27.748Z,13.38
2019-06-01T03:24:27.740Z,13.41
2019-06-01T03:25:27.763Z,13.44
2019-06-01T03:26:27.766Z,13.47
2019-06-01T03:27:27.796Z,13.42
2019-06-01T03:28:27.812Z,13.41
2019-06-01T03:29:27.821Z,13.53
2019-06-01T03:30:27.852Z,13.47
2019-06-01T03:31:27.856Z,13.50
2019-06-01T03:32:36.153Z,13.59
2019-06-01T03:33:27.899Z,13.56
2019-06-01T03:34:27.908Z,13.54
2019-06-01T03:35:27.924Z,13.63
2019-06-01T03:36:27.947Z,13.74
2019-06-01T03:37:27.961Z,13.70
2019-06-01T03:38:27.985Z,13.70
2019-06-01T03:39:27.998Z,13.83
2019-06-01T03:40:28.014Z,13.83
2019-06-01T03:41:28.034Z,13.81
2019-06-01T03:42:28.048Z,13.83
2019-06-01T03:43:28.068Z,13.75
2019-06-01T03:44:28.083Z,13.72
2019-06-01T03:45:28.101Z,13.72
2019-06-01T03:46:28.119Z,13.77
2019-06-01T03:47:28.133Z,13.74
2019-06-01T03:48:28.161Z,13.74
2019-06-01T03:49:28.171Z,13.68
2019-06-01T03:50:28.193Z,13.70
2019-06-01T03:51:28.204Z,13.77
2019-06-01T03:52:28.222Z,13.74
2019-06-01T03:53:28.239Z,13.75
2019-06-01T03:54:28.261Z,13.83
2019-06-01T03:55:28.278Z,13.85
2019-06-01T03:56:28.298Z,13.83
2019-06-01T03:57:28.310Z,14.00
2019-06-01T03:58:28.329Z,13.92
2019-06-01T03:59:28.344Z,14.10
2019-06-01T04:00:28.363Z,14.00
2019-06-01T04:01:28.383Z,14.05
2019-06-01T04:02:33.185Z,14.11
2019-06-01T04:03:28.421Z,14.05
2019-06-01T04:04:28.435Z,14.20
2019-06-01T04:05:28.450Z,14.17
2019-06-01T04:06:28.469Z,14.26
2019-06-01T04:07:28.487Z,14.26
2019-06-01T04:08:28.504Z,14.25
2019-06-01T04:09:28.523Z,14.35
2019-06-01T04:10:28.538Z,14.41
2019-06-01T04:11:28.567Z,14.41
2019-06-01T04:12:28.575Z,14.41
2019-06-01T04:13:28.591Z,14.55
2019-06-01T04:14:28.609Z,14.60
2019-06-01T04:15:28.629Z,14.63
2019-06-01T04:16:28.651Z,14.60
2019-06-01T04:17:28.671Z,14.63
2019-06-01T04:18:28.679Z,14.60
2019-06-01T04:19:28.699Z,14.65
2019-06-01T04:20:28.716Z,14.77
2019-06-01T04:21:28.734Z,14.73
2019-06-01T04:22:28.755Z,14.92
2019-06-01T04:23:28.770Z,14.96
2019-06-01T04:24:28.791Z,15.06
2019-06-01T04:25:28.806Z,15.15
2019-06-01T04:26:28.834Z,15.25
2019-06-01T04:27:28.848Z,15.37
2019-06-01T04:28:28.862Z,15.35
2019-06-01T04:29:28.885Z,15.29
2019-06-01T04:30:28.897Z,15.35
2019-06-01T04:31:28.916Z,15.47
2019-06-01T04:32:28.946Z,15.57
2019-06-01T04:33:28.949Z,15.72
2019-06-01T04:34:28.969Z,15.73
2019-06-01T04:35:28.985Z,15.88
2019-06-01T04:36:29.010Z,15.92
2019-06-01T04:37:29.024Z,16.10
2019-06-01T04:38:29.050Z,16.20
2019-06-01T04:39:29.061Z,16.16
2019-06-01T04:40:29.095Z,16.15
2019-06-01T04:41:29.097Z,16.24
2019-06-01T04:42:29.117Z,16.24
2019-06-01T04:43:29.138Z,16.13
2019-06-01T04:44:29.160Z,16.15
2019-06-01T04:45:29.170Z,16.12
2019-06-01T04:46:29.188Z,16.24
2019-06-01T04:47:29.209Z,16.29
2019-06-01T04:48:29.230Z,16.33
2019-06-01T04:49:29.247Z,16.35
2019-06-01T04:50:29.266Z,16.56
2019-06-01T04:51:29.290Z,16.69
2019-06-01T04:52:29.301Z,16.72
2019-06-01T04:53:29.317Z,16.84
2019-06-01T04:54:29.339Z,17.05
2019-06-01T04:55:29.365Z,17.26
2019-06-01T04:56:29.374Z,17.42
2019-06-01T04:57:29.419Z,17.63
2019-06-01T04:58:29.415Z,17.87
2019-06-01T04:59:29.433Z,17.89
2019-06-01T05:00:29.453Z,18.10
2019-06-01T05:01:29.477Z,17.86
2019-06-01T05:02:29.495Z,17.82
2019-06-01T05:03:29.510Z,18.03
2019-06-01T05:04:29.530Z,18.40
2019-06-01T05:05:29.549Z,18.98
2019-06-01T05:06:29.567Z,19.51
2019-06-01T05:07:29.588Z,20.09
2019-06-01T05:08:29.608Z,20.69
2019-06-01T05:09:29.626Z,20.67
2019-06-01T05:10:29.647Z,21.25
2019-06-01T05:11:29.666Z,21.95
2019-06-01T05:12:29.686Z,22.44
2019-06-01T05:13:29.708Z,22.44
2019-06-01T05:14:29.734Z,22.38
2019-06-01T05:15:29.752Z,22.62
2019-06-01T05:16:29.784Z,22.72
2019-06-01T05:17:29.794Z,22.90
2019-06-01T05:18:29.822Z,23.10
2019-06-01T05:19:29.860Z,23.13
2019-06-01T05:20:29.900Z,23.62
2019-06-01T05:21:29.888Z,23.62
2019-06-01T05:22:29.920Z,24.01
2019-06-01T05:23:29.929Z,24.29
2019-06-01T05:24:29.956Z,24.68
2019-06-01T05:25:29.983Z,25.07
2019-06-01T05:26:29.998Z,25.50
2019-06-01T05:27:30.031Z,25.53
2019-06-01T05:28:30.054Z,25.35
2019-06-01T05:29:30.071Z,25.51
2019-06-01T05:30:30.095Z,25.69
2019-06-01T05:31:30.126Z,26.00
2019-06-01T05:32:30.153Z,26.18
2019-06-01T05:33:37.354Z,26.37
2019-06-01T05:34:30.189Z,26.60
2019-06-01T05:35:30.214Z,26.33
2019-06-01T05:36:30.243Z,25.80
2019-06-01T05:37:30.271Z,25.58
2019-06-01T05:38:30.293Z,25.43
2019-06-01T05:39:30.319Z,25.43
2019-06-01T05:40:30.354Z,25.48
2019-06-01T05:41:30.360Z,25.62
2019-06-01T05:42:30.384Z,25.36
2019-06-01T05:43:30.419Z,25.50
2019-06-01T05:44:30.442Z,25.46
2019-06-01T05:45:30.459Z,25.73
2019-06-01T05:46:30.484Z,25.31
2019-06-01T05:47:30.509Z,25.32
2019-06-01T05:48:30.895Z,25.43
2019-06-01T05:49:30.564Z,25.41
2019-06-01T05:50:30.589Z,25.28
2019-06-01T05:51:30.608Z,25.41
2019-06-01T05:52:30.635Z,25.60
2019-06-01T05:53:30.658Z,25.59
2019-06-01T05:54:30.729Z,25.55
2019-06-01T05:55:30.715Z,25.47
2019-06-01T05:56:30.734Z,25.35
2019-06-01T05:57:30.767Z,25.51
2019-06-01T05:58:30.784Z,25.48
2019-06-01T05:59:30.808Z,25.51
2019-06-01T06:00:30.833Z,26.00
2019-06-01T06:01:30.859Z,26.09
2019-06-01T06:02:30.886Z,26.40
2019-06-01T06:03:40.050Z,26.53
2019-06-01T06:04:30.936Z,26.56
2019-06-01T06:05:30.960Z,26.63
2019-06-01T06:06:30.986Z,26.45
2019-06-01T06:07:31.046Z,26.41
2019-06-01T06:08:31.037Z,26.59
2019-06-01T06:09:31.064Z,26.85
2019-06-01T06:10:31.084Z,26.85
2019-06-01T06:11:31.108Z,27.33
2019-06-01T06:12:31.135Z,27.05
2019-06-01T06:13:31.166Z,27.08
2019-06-01T06:14:31.189Z,27.42
2019-06-01T06:15:31.209Z,27.42
2019-06-01T06:16:31.236Z,28.11
2019-06-01T06:17:31.262Z,28.22
2019-06-01T06:18:31.292Z,28.67
2019-06-01T06:19:31.315Z,28.37
2019-06-01T06:20:31.339Z,28.30
2019-06-01T06:21:31.365Z,28.97
2019-06-01T06:22:31.391Z,29.32
2019-06-01T06:23:31.416Z,30.54
2019-06-01T06:24:31.448Z,31.10
2019-06-01T06:25:33.274Z,31.15
2019-06-01T06:26:31.506Z,30.92
2019-06-01T06:27:31.635Z,30.48
2019-06-01T06:28:31.547Z,30.59
2019-06-01T06:29:31.572Z,30.81
2019-06-01T06:30:31.599Z,30.48
2019-06-01T06:31:31.626Z,29.27
2019-06-01T06:32:31.652Z,28.98
2019-06-01T06:33:31.676Z,29.02
2019-06-01T06:34:31.705Z,28.66
2019-06-01T06:35:31.730Z,28.39
2019-06-01T06:36:31.755Z,28.57
2019-06-01T06:37:31.778Z,28.49
2019-06-01T06:38:31.806Z,29.05
2019-06-01T06:39:31.833Z,29.07
2019-06-01T06:40:31.869Z,29.29
2019-06-01T06:41:31.889Z,29.12
2019-06-01T06:42:31.909Z,28.81
2019-06-01T06:43:33.321Z,29.50
2019-06-01T06:44:31.965Z,29.69
2019-06-01T06:45:31.997Z,29.69
2019-06-01T06:46:32.024Z,30.55
2019-06-01T06:47:32.040Z,29.91
2019-06-01T06:48:32.069Z,29.69
2019-06-01T06:49:32.106Z,29.65
2019-06-01T06:50:32.131Z,29.76
2019-06-01T06:51:32.147Z,29.49
2019-06-01T06:52:32.176Z,29.86
2019-06-01T06:53:35.054Z,29.87
2019-06-01T06:54:32.230Z,29.95
2019-06-01T06:55:32.258Z,30.08
2019-06-01T06:56:32.288Z,29.86
2019-06-01T06:57:32.304Z,29.57
2019-06-01T06:58:32.346Z,29.08
2019-06-01T06:59:32.371Z,28.91
2019-06-01T07:00:32.400Z,29.05
2019-06-01T07:01:32.413Z,29.02
2019-06-01T07:02:32.458Z,29.53
2019-06-01T07:03:32.469Z,29.50
2019-06-01T07:04:32.491Z,29.75
2019-06-01T07:05:32.526Z,30.13
2019-06-01T07:06:32.570Z,29.95
2019-06-01T07:07:32.593Z,30.80
2019-06-01T07:08:32.602Z,31.31
2019-06-01T07:09:32.639Z,30.78
2019-06-01T07:10:32.654Z,30.24
2019-06-01T07:11:32.688Z,29.76
2019-06-01T07:12:32.707Z,29.79
2019-06-01T07:13:32.748Z,29.50
2019-06-01T07:14:32.760Z,29.63
2019-06-01T07:15:32.788Z,29.63
2019-06-01T07:16:32.812Z,29.29
2019-06-01T07:17:32.856Z,29.23
2019-06-01T07:18:32.866Z,29.07
2019-06-01T07:19:32.915Z,28.44
2019-06-01T07:20:32.923Z,28.69
2019-06-01T07:21:32.945Z,29.08
2019-06-01T07:22:32.975Z,29.61
2019-06-01T07:23:33.001Z,29.02
2019-06-01T07:24:33.028Z,29.05
2019-06-01T07:25:33.090Z,29.24
2019-06-01T07:26:33.083Z,29.91
2019-06-01T07:27:33.125Z,30.15
2019-06-01T07:28:33.145Z,29.82
2019-06-01T07:29:33.161Z,29.68
2019-06-01T07:30:49.435Z,29.87
2019-06-01T07:31:33.211Z,29.78
2019-06-01T07:32:33.239Z,29.66
2019-06-01T07:33:33.263Z,29.54
2019-06-01T07:34:39.683Z,29.68
2019-06-01T07:35:33.331Z,29.72
2019-06-01T07:36:33.357Z,30.40
2019-06-01T07:37:33.379Z,30.19
2019-06-01T07:38:33.411Z,29.95
2019-06-01T07:39:33.596Z,29.68
2019-06-01T07:40:33.455Z,29.90
2019-06-01T07:41:33.486Z,29.90
2019-06-01T07:42:33.505Z,30.00
2019-06-01T07:43:33.528Z,29.78
2019-06-01T07:44:33.556Z,29.68
2019-06-01T07:45:35.327Z,29.93
2019-06-01T07:46:33.609Z,30.19
2019-06-01T07:47:34.103Z,29.91
2019-06-01T07:48:33.670Z,29.79
2019-06-01T07:49:33.700Z,29.57
2019-06-01T07:50:33.713Z,29.44
2019-06-01T07:51:33.740Z,29.51
2019-06-01T07:52:33.767Z,29.63
2019-06-01T07:53:33.795Z,29.71
2019-06-01T07:54:33.824Z,30.16
2019-06-01T07:55:33.848Z,30.50
2019-06-01T07:56:33.878Z,30.62
2019-06-01T07:57:33.901Z,30.37
2019-06-01T07:58:33.929Z,30.44
2019-06-01T07:59:33.954Z,30.19
2019-06-01T08:00:33.979Z,30.68
2019-06-01T08:01:34.030Z,30.66
2019-06-01T08:02:34.034Z,30.78
2019-06-01T08:03:35.061Z,30.80
2019-06-01T08:04:51.848Z,30.70
2019-06-01T08:05:34.113Z,30.83
2019-06-01T08:06:34.141Z,30.55
2019-06-01T08:07:34.164Z,30.88
2019-06-01T08:08:34.201Z,30.84
2019-06-01T08:09:34.221Z,30.53
2019-06-01T08:10:34.246Z,30.63
2019-06-01T08:11:35.170Z,30.63
2019-06-01T08:12:34.300Z,30.48
2019-06-01T08:13:35.885Z,30.84
2019-06-01T08:14:34.357Z,31.09
2019-06-01T08:15:34.395Z,30.73
2019-06-01T08:16:34.405Z,30.68
2019-06-01T08:17:34.430Z,30.92
2019-06-01T08:18:34.453Z,30.94
2019-06-01T08:19:34.482Z,30.99
2019-06-01T08:20:34.510Z,31.21
2019-06-01T08:21:34.542Z,30.78
2019-06-01T08:22:34.557Z,30.84
2019-06-01T08:23:34.583Z,30.47
2019-06-01T08:24:34.625Z,30.47
2019-06-01T08:25:34.661Z,30.21
2019-06-01T08:26:34.681Z,30.25
2019-06-01T08:27:34.691Z,30.31
2019-06-01T08:28:34.712Z,30.32
2019-06-01T08:29:34.735Z,30.06
2019-06-01T08:30:34.770Z,29.93
2019-06-01T08:31:34.785Z,29.41
2019-06-01T08:32:34.812Z,29.68
2019-06-01T08:33:35.119Z,29.51
2019-06-01T08:34:34.859Z,29.71
2019-06-01T08:35:34.885Z,29.56
2019-06-01T08:36:34.908Z,29.49
2019-06-01T08:37:34.936Z,29.50
2019-06-01T08:38:34.957Z,29.45
2019-06-01T08:39:34.984Z,29.54
2019-06-01T08:40:35.010Z,29.42
2019-06-01T08:41:35.029Z,29.23
2019-06-01T08:42:35.051Z,29.61
2019-06-01T08:43:35.078Z,29.51
2019-06-01T08:44:35.120Z,29.26
2019-06-01T08:45:37.407Z,29.16
2019-06-01T08:46:35.149Z,29.60
2019-06-01T08:47:35.176Z,29.29
2019-06-01T08:48:35.196Z,29.47
2019-06-01T08:49:35.284Z,29.49
2019-06-01T08:50:35.253Z,28.96
2019-06-01T08:51:35.270Z,28.70
2019-06-01T08:52:35.307Z,28.41
2019-06-01T08:53:35.317Z,28.63
2019-06-01T08:54:35.343Z,28.74
2019-06-01T08:55:35.363Z,28.94
2019-06-01T08:56:35.400Z,28.94
2019-06-01T08:57:35.416Z,28.86
2019-06-01T08:58:35.434Z,28.70
2019-06-01T08:59:35.459Z,28.51
2019-06-01T09:00:35.481Z,27.98
2019-06-01T09:01:35.504Z,27.93
2019-06-01T09:02:35.528Z,27.48
2019-06-01T09:03:43.511Z,27.25
2019-06-01T09:04:35.579Z,27.10
2019-06-01T09:05:35.605Z,26.70
2019-06-01T09:06:35.628Z,26.56
2019-06-01T09:07:35.650Z,26.38
2019-06-01T09:08:35.763Z,26.66
2019-06-01T09:09:35.693Z,27.15
2019-06-01T09:10:35.729Z,27.07
2019-06-01T09:11:35.741Z,26.89
2019-06-01T09:12:35.763Z,26.95
2019-06-01T09:13:35.789Z,27.03
2019-06-01T09:14:35.817Z,27.22
2019-06-01T09:15:35.841Z,27.14
2019-06-01T09:16:36.162Z,27.10
2019-06-01T09:17:35.878Z,27.51
2019-06-01T09:18:35.961Z,27.59
2019-06-01T09:19:35.920Z,27.60
2019-06-01T09:20:38.822Z,27.75
2019-06-01T09:21:35.965Z,27.54
2019-06-01T09:22:35.992Z,27.59
2019-06-01T09:23:36.980Z,27.35
2019-06-01T09:24:36.301Z,27.54
2019-06-01T09:25:36.055Z,27.82
2019-06-01T09:26:36.206Z,27.64
2019-06-01T09:27:36.263Z,27.80
2019-06-01T09:28:36.311Z,27.92
2019-06-01T09:29:36.277Z,28.14
2019-06-01T09:30:36.328Z,28.08
2019-06-01T09:31:36.701Z,27.96
2019-06-01T09:32:36.532Z,27.95
2019-06-01T09:33:36.888Z,27.89
2019-06-01T09:34:36.480Z,27.77
2019-06-01T09:35:52.700Z,27.78
2019-06-01T09:36:36.814Z,27.71
2019-06-01T09:37:36.801Z,27.89
2019-06-01T09:38:36.355Z,28.42
2019-06-01T09:39:37.299Z,28.59
2019-06-01T09:40:37.299Z,28.72
2019-06-01T09:41:36.651Z,28.81
2019-06-01T09:42:37.472Z,28.82
2019-06-01T09:43:37.206Z,28.38
2019-06-01T09:44:37.372Z,27.98
2019-06-01T09:45:36.517Z,27.89
2019-06-01T09:46:37.411Z,28.23
2019-06-01T09:47:37.693Z,28.23
2019-06-01T09:48:37.746Z,28.37
2019-06-01T09:49:37.909Z,28.57
2019-06-01T09:50:37.691Z,28.78
2019-06-01T09:51:37.768Z,29.05
2019-06-01T09:52:37.751Z,29.27
2019-06-01T09:53:37.955Z,29.38
2019-06-01T09:54:38.023Z,28.97
2019-06-01T09:55:36.753Z,28.52
2019-06-01T09:56:38.187Z,28.49
2019-06-01T09:57:38.141Z,28.39
2019-06-01T09:58:36.969Z,28.27
2019-06-01T09:59:37.927Z,28.10
2019-06-01T10:00:41.539Z,28.48
2019-06-01T10:01:36.905Z,28.85
2019-06-01T10:02:38.232Z,28.84
2019-06-01T10:03:38.387Z,28.89
2019-06-01T10:04:36.964Z,28.75
2019-06-01T10:05:36.986Z,28.74
2019-06-01T10:06:37.009Z,28.42
2019-06-01T10:07:37.146Z,28.63
2019-06-01T10:08:38.141Z,28.20
2019-06-01T10:09:37.814Z,27.95
2019-06-01T10:10:38.064Z,27.96
2019-06-01T10:11:38.121Z,27.51
2019-06-01T10:12:38.212Z,27.58
2019-06-01T10:13:38.432Z,27.70
2019-06-01T10:14:39.238Z,28.00
2019-06-01T10:15:38.415Z,28.01
2019-06-01T10:16:38.765Z,27.93
2019-06-01T10:17:37.266Z,28.11
2019-06-01T10:18:37.298Z,27.96
2019-06-01T10:19:37.316Z,28.27
2019-06-01T10:20:37.339Z,28.42
2019-06-01T10:21:38.060Z,28.44
2019-06-01T10:22:37.383Z,28.04
2019-06-01T10:23:38.488Z,27.90
2019-06-01T10:24:37.432Z,27.89
2019-06-01T10:25:38.513Z,28.54
2019-06-01T10:26:37.716Z,28.78
2019-06-01T10:27:38.709Z,28.78
2019-06-01T10:28:37.847Z,28.97
2019-06-01T10:29:39.754Z,29.23
2019-06-01T10:30:37.900Z,29.19
2019-06-01T10:31:41.034Z,29.29
2019-06-01T10:32:38.112Z,29.23
2019-06-01T10:33:38.934Z,29.49
2019-06-01T10:34:37.774Z,29.66
2019-06-01T10:35:38.928Z,29.78
2019-06-01T10:36:38.074Z,29.76
2019-06-01T10:37:37.768Z,29.79
2019-06-01T10:38:37.764Z,29.73
2019-06-01T10:39:37.786Z,29.82
2019-06-01T10:40:37.808Z,29.95
2019-06-01T10:41:37.841Z,29.69
2019-06-01T10:42:38.128Z,29.71
2019-06-01T10:43:37.891Z,28.88
2019-06-01T10:44:43.393Z,28.86
2019-06-01T10:45:37.927Z,28.75
2019-06-01T10:46:38.121Z,28.78
2019-06-01T10:47:38.386Z,29.05
2019-06-01T10:48:38.120Z,29.26
2019-06-01T10:49:38.063Z,28.93
2019-06-01T10:50:38.416Z,29.04
2019-06-01T10:51:38.327Z,28.60
2019-06-01T10:52:38.419Z,28.51
2019-06-01T10:53:38.242Z,28.42
2019-06-01T10:54:38.367Z,28.60
2019-06-01T10:55:38.470Z,29.05
2019-06-01T10:56:38.571Z,28.89
2019-06-01T10:57:38.578Z,28.82
2019-06-01T10:58:54.456Z,28.63
2019-06-01T10:59:38.467Z,28.72
2019-06-01T11:00:45.491Z,29.08
2019-06-01T11:01:38.898Z,29.29
2019-06-01T11:02:38.843Z,29.16
2019-06-01T11:03:38.747Z,29.20
2019-06-01T11:04:38.967Z,29.27
2019-06-01T11:05:38.836Z,29.32
2019-06-01T11:06:44.901Z,29.57
2019-06-01T11:07:39.111Z,29.04
2019-06-01T11:08:39.058Z,29.02
2019-06-01T11:09:38.981Z,29.07
2019-06-01T11:10:38.913Z,29.36
2019-06-01T11:11:39.100Z,29.41
2019-06-01T11:12:39.124Z,29.29
2019-06-01T11:13:39.086Z,29.38
2019-06-01T11:14:39.093Z,29.54
2019-06-01T11:15:39.095Z,29.78
2019-06-01T11:16:39.483Z,29.61
2019-06-01T11:17:39.235Z,29.47
2019-06-01T11:18:39.573Z,29.45
2019-06-01T11:19:39.474Z,28.51
2019-06-01T11:20:39.376Z,28.38
2019-06-01T11:21:39.515Z,28.39
2019-06-01T11:22:39.578Z,28.48
2019-06-01T11:23:42.646Z,28.82
2019-06-01T11:24:39.510Z,28.74
2019-06-01T11:25:39.609Z,28.54
2019-06-01T11:26:39.732Z,28.38
2019-06-01T11:27:39.711Z,28.72
2019-06-01T11:28:40.098Z,28.56
2019-06-01T11:29:47.893Z,28.41
2019-06-01T11:30:39.960Z,28.64
2019-06-01T11:31:40.148Z,28.86
2019-06-01T11:32:39.992Z,29.04
2019-06-01T11:33:40.122Z,29.08
2019-06-01T11:34:40.248Z,29.22
2019-06-01T11:35:39.225Z,29.38
2019-06-01T11:36:58.552Z,29.50
2019-06-01T11:37:40.443Z,29.44
2019-06-01T11:38:40.326Z,29.35
2019-06-01T11:39:40.496Z,29.22
2019-06-01T11:40:40.682Z,29.34
2019-06-01T11:41:40.541Z,29.51
2019-06-01T11:42:39.272Z,29.54
2019-06-01T11:43:39.291Z,29.66
2019-06-01T11:44:39.319Z,29.69
2019-06-01T11:45:39.340Z,29.78
2019-06-01T11:46:39.378Z,29.68
2019-06-01T11:47:39.396Z,29.49
2019-06-01T11:48:39.416Z,29.49
2019-06-01T11:49:39.431Z,29.69
2019-06-01T11:50:39.455Z,29.29
2019-06-01T11:51:39.505Z,29.32
2019-06-01T11:52:39.507Z,29.10
2019-06-01T11:53:39.961Z,29.10
2019-06-01T11:54:39.550Z,29.49
2019-06-01T11:55:39.577Z,29.29
2019-06-01T11:56:39.613Z,29.24
2019-06-01T11:57:39.646Z,29.35
2019-06-01T11:58:39.647Z,29.35
2019-06-01T11:59:39.671Z,29.56
2019-06-01T12:00:39.694Z,29.29
2019-06-01T12:01:39.893Z,29.51
2019-06-01T12:02:39.799Z,29.69
2019-06-01T12:03:39.775Z,29.71
2019-06-01T12:04:39.862Z,29.95
2019-06-01T12:05:39.966Z,29.90
2019-06-01T12:06:39.869Z,29.78
2019-06-01T12:07:40.015Z,29.79
2019-06-01T12:08:40.013Z,29.51
2019-06-01T12:09:40.004Z,29.36
2019-06-01T12:10:41.080Z,29.17
2019-06-01T12:11:40.091Z,28.76
2019-06-01T12:12:40.263Z,28.74
2019-06-01T12:13:40.241Z,28.57
2019-06-01T12:14:40.344Z,28.74
2019-06-01T12:15:40.326Z,28.81
2019-06-01T12:16:40.399Z,29.12
2019-06-01T12:17:40.646Z,29.35
2019-06-01T12:18:40.636Z,29.29
2019-06-01T12:19:40.766Z,29.32
2019-06-01T12:20:40.744Z,29.57
2019-06-01T12:21:40.908Z,29.26
2019-06-01T12:22:40.833Z,29.05
2019-06-01T12:23:41.453Z,29.26
2019-06-01T12:24:40.943Z,29.24
2019-06-01T12:25:40.288Z,29.54
2019-06-01T12:26:41.359Z,29.45
2019-06-01T12:27:41.446Z,29.49
2019-06-01T12:28:41.513Z,29.59
2019-06-01T12:29:41.490Z,29.71
2019-06-01T12:30:41.528Z,29.44
2019-06-01T12:31:41.640Z,29.59
2019-06-01T12:32:41.802Z,29.36
2019-06-01T12:33:41.907Z,29.59
2019-06-01T12:34:41.729Z,29.53
2019-06-01T12:35:40.521Z,29.54
2019-06-01T12:36:40.997Z,29.71
2019-06-01T12:38:02.039Z,29.53
2019-06-01T12:38:40.596Z,29.72
2019-06-01T12:39:40.616Z,29.69
2019-06-01T12:40:41.117Z,29.57
2019-06-01T12:41:41.547Z,29.39
2019-06-01T12:42:41.527Z,29.22
2019-06-01T12:43:41.493Z,29.05
2019-06-01T12:44:41.663Z,28.89
2019-06-01T12:45:41.595Z,28.82
2019-06-01T12:46:41.746Z,28.98
2019-06-01T12:47:41.817Z,29.24
2019-06-01T12:48:41.833Z,29.35
2019-06-01T12:49:42.023Z,29.26
2019-06-01T12:50:42.060Z,29.49
2019-06-01T12:51:42.378Z,29.49
2019-06-01T12:52:42.187Z,29.38